Sint-Genesius-Rode, Belgium
Current Conditions -  °F | °C
As of 7:50 PM on Sunday 23 Nov 2014 (Local Time) from EBBR Reporting Station
Few Clouds Few Clouds  
Wind Chill: 12°   Ceiling: Unl
Heat Index: 12°   Visibility: 6mi
Dew Point: 10°   Wind: 5mph
Humidity: 88%   Direction: 210°SSW
Pressure: 29.94"   Gusts: NA
Location:  50.75°N, 4.36°E
Report Text: EBBR 231850Z 21004KT 9999 FEW027 12/10 Q1014 NOSIG
Loading
Personal Weather Stations






























Interactive Weather Map New forecast layout! Learn more

10-Day Weather Forecast

Advertisements
Track Severe Weather on mobile